createdAt,value
2022-09-07T00:00:12.171Z,883
2022-09-07T00:05:30.938Z,897
2022-09-07T00:10:49.149Z,885
2022-09-07T00:16:07.407Z,872
2022-09-07T00:21:25.840Z,873
2022-09-07T00:26:43.759Z,867
2022-09-07T00:32:02.274Z,861
2022-09-07T00:37:20.762Z,848
2022-09-07T00:42:39.239Z,845
2022-09-07T00:47:57.972Z,828
2022-09-07T00:53:16.731Z,829
2022-09-07T00:58:35.258Z,840
2022-09-07T01:03:54.005Z,838
2022-09-07T01:09:12.490Z,831
2022-09-07T01:14:30.953Z,837
2022-09-07T01:19:49.450Z,830
2022-09-07T01:25:07.932Z,818
2022-09-07T01:30:26.394Z,819
2022-09-07T01:35:44.905Z,814
2022-09-07T01:41:03.377Z,821
2022-09-07T01:46:22.180Z,808
2022-09-07T01:51:40.692Z,803
2022-09-07T01:56:58.937Z,798
2022-09-07T02:02:17.496Z,797
2022-09-07T02:07:36.113Z,790
2022-09-07T02:12:54.295Z,793
2022-09-07T02:18:12.767Z,784
2022-09-07T02:23:31.261Z,785
2022-09-07T02:28:49.464Z,797
2022-09-07T02:34:07.940Z,798
2022-09-07T02:39:26.450Z,787
2022-09-07T02:44:44.382Z,785
2022-09-07T02:50:02.589Z,784
2022-09-07T02:55:20.791Z,830
2022-09-07T03:00:39.312Z,813
2022-09-07T03:05:58.048Z,786
2022-09-07T03:11:16.514Z,772
2022-09-07T03:16:34.753Z,768
2022-09-07T03:21:52.637Z,784
2022-09-07T03:27:11.425Z,783
2022-09-07T03:32:30.232Z,790
2022-09-07T03:37:48.703Z,813
2022-09-07T03:43:07.181Z,860
2022-09-07T03:48:25.950Z,809
2022-09-07T03:53:44.438Z,773
2022-09-07T03:59:03.183Z,765
2022-09-07T04:04:21.969Z,747
2022-09-07T04:09:40.169Z,732
2022-09-07T04:14:58.640Z,724
2022-09-07T04:20:16.581Z,715
2022-09-07T04:25:34.983Z,819
2022-09-07T04:30:53.480Z,872
2022-09-07T04:36:11.846Z,856
2022-09-07T04:41:30.309Z,758
2022-09-07T04:46:49.074Z,595
2022-09-07T04:52:07.556Z,528
2022-09-07T04:57:26.036Z,496
2022-09-07T05:02:44.662Z,480
2022-09-07T05:08:03.406Z,461
2022-09-07T05:13:22.160Z,460
2022-09-07T05:18:40.371Z,451
2022-09-07T05:23:59.127Z,442
2022-09-07T05:35:24.225Z,439
2022-09-07T05:40:42.987Z,424
2022-09-07T05:46:01.500Z,421
2022-09-07T05:51:20.223Z,416
2022-09-07T05:56:38.687Z,416
2022-09-07T06:01:57.540Z,412
2022-09-07T06:07:23.776Z,409
2022-09-07T06:12:43.415Z,410
2022-09-07T06:18:07.641Z,404
2022-09-07T06:23:26.407Z,401
2022-09-07T06:28:47.668Z,401
2022-09-07T06:34:15.153Z,402
2022-09-07T06:39:33.671Z,408
2022-09-07T06:44:52.505Z,404
2022-09-07T06:50:10.715Z,404
2022-09-07T06:55:28.914Z,400
2022-09-07T07:00:47.141Z,401
2022-09-07T07:06:05.209Z,406
2022-09-07T07:11:23.666Z,405
2022-09-07T07:16:42.213Z,430
2022-09-07T07:34:23.184Z,418
2022-09-07T07:51:24.454Z,446
2022-09-07T07:56:42.892Z,440
2022-09-07T08:02:01.719Z,432
2022-09-07T08:07:20.235Z,466
2022-09-07T08:12:39.542Z,459
2022-09-07T08:17:58.326Z,448
2022-09-07T08:23:17.145Z,439
2022-09-07T08:28:35.359Z,437
2022-09-07T08:33:53.890Z,423
2022-09-07T08:39:12.363Z,408
2022-09-07T08:44:30.564Z,404
2022-09-07T08:49:49.319Z,396
2022-09-07T08:55:07.805Z,390
2022-09-07T09:00:26.274Z,397
2022-09-07T09:05:45.154Z,407
2022-09-07T09:11:03.705Z,403
2022-09-07T09:16:22.195Z,397
2022-09-07T09:21:41.216Z,390
2022-09-07T09:27:00.036Z,391
2022-09-07T09:32:18.771Z,392
2022-09-07T09:37:36.994Z,393
2022-09-07T09:42:55.760Z,390
2022-09-07T09:48:13.957Z,392
2022-09-07T09:53:32.147Z,394
2022-09-07T09:59:56.590Z,396
2022-09-07T10:05:24.695Z,394
2022-09-07T10:10:43.456Z,398
2022-09-07T10:15:46.096Z,404
2022-09-07T10:21:04.570Z,406
2022-09-07T10:26:23.344Z,409
2022-09-07T10:31:42.187Z,412
2022-09-07T10:37:00.359Z,407
2022-09-07T10:42:19.155Z,414
2022-09-07T10:47:37.673Z,422
2022-09-07T10:52:56.548Z,425
2022-09-07T10:58:14.752Z,417
2022-09-07T11:03:33.264Z,415
2022-09-07T11:14:40.292Z,395
2022-09-07T11:19:58.800Z,391
2022-09-07T11:25:32.606Z,385
2022-09-07T11:30:50.863Z,385
2022-09-07T11:36:12.160Z,386
2022-09-07T11:41:30.821Z,390
2022-09-07T11:46:49.255Z,400
2022-09-07T11:52:07.750Z,402
2022-09-07T11:57:26.234Z,397
2022-09-07T12:02:58.609Z,390
2022-09-07T12:08:18.937Z,390
2022-09-07T12:13:37.674Z,394
2022-09-07T12:18:56.427Z,395
2022-09-07T12:24:15.220Z,391
2022-09-07T12:29:33.189Z,393
2022-09-07T12:34:51.708Z,395
2022-09-07T12:40:10.502Z,394
2022-09-07T12:45:29.475Z,394
2022-09-07T12:50:48.234Z,404
2022-09-07T12:56:22.504Z,412
2022-09-07T13:01:41.380Z,401
2022-09-07T13:07:03.200Z,399
2022-09-07T13:18:12.007Z,395
2022-09-07T13:23:30.806Z,389
2022-09-07T13:28:49.334Z,384
2022-09-07T13:34:08.034Z,387
2022-09-07T13:39:26.579Z,390
2022-09-07T13:44:44.944Z,392
2022-09-07T13:50:03.672Z,396
2022-09-07T13:55:25.676Z,388
2022-09-07T14:00:44.247Z,413
2022-09-07T14:06:02.403Z,408
2022-09-07T14:11:20.883Z,412
2022-09-07T14:16:39.500Z,393
2022-09-07T14:21:58.384Z,394
2022-09-07T14:27:16.891Z,411
2022-09-07T14:32:35.943Z,410
2022-09-07T14:37:54.445Z,402
2022-09-07T14:43:12.649Z,387
2022-09-07T14:48:32.764Z,382
2022-09-07T14:53:56.472Z,382
2022-09-07T14:59:15.244Z,378
2022-09-07T15:04:33.818Z,373
2022-09-07T15:09:52.319Z,377
2022-09-07T15:15:11.063Z,379
2022-09-07T15:20:29.652Z,389
2022-09-07T15:25:50.644Z,394
2022-09-07T15:44:21.635Z,461
2022-09-07T15:49:50.484Z,483
2022-09-07T15:55:11.979Z,484
2022-09-07T16:00:30.427Z,491
2022-09-07T16:05:48.939Z,492
2022-09-07T16:11:11.346Z,491
2022-09-07T16:16:22.276Z,489
2022-09-07T16:28:34.495Z,488
2022-09-07T16:33:52.993Z,488
2022-09-07T16:39:11.735Z,499
2022-09-07T16:44:30.567Z,506
2022-09-07T16:49:49.032Z,512
2022-09-07T16:55:09.285Z,508
2022-09-07T17:00:30.397Z,507
2022-09-07T17:05:52.045Z,504
2022-09-07T17:11:10.281Z,502
2022-09-07T17:16:28.805Z,502
2022-09-07T17:21:47.061Z,503
2022-09-07T17:27:05.551Z,501
2022-09-07T17:32:25.245Z,502
2022-09-07T17:37:44.444Z,501
2022-09-07T17:49:03.927Z,501
2022-09-07T17:54:22.121Z,505
2022-09-07T18:05:30.577Z,506
2022-09-07T18:17:07.943Z,506
2022-09-07T18:22:26.138Z,510
2022-09-07T18:27:45.162Z,512
2022-09-07T18:34:21.001Z,512
2022-09-07T18:39:40.676Z,508
2022-09-07T18:50:47.908Z,520
2022-09-07T18:56:06.161Z,536
2022-09-07T19:01:24.215Z,549
2022-09-07T19:06:43.160Z,556
2022-09-07T19:12:01.759Z,557
2022-09-07T19:17:20.047Z,548
2022-09-07T19:22:38.829Z,540
2022-09-07T19:27:57.311Z,536
2022-09-07T19:33:15.808Z,538
2022-09-07T19:38:34.265Z,531
2022-09-07T19:43:52.484Z,533
2022-09-07T19:49:10.392Z,543
2022-09-07T19:54:28.885Z,558
2022-09-07T19:59:47.121Z,536
2022-09-07T20:05:05.290Z,544
2022-09-07T20:10:24.079Z,545
2022-09-07T20:15:42.282Z,587
2022-09-07T20:21:00.537Z,608
2022-09-07T20:26:18.999Z,608
2022-09-07T20:31:37.856Z,603
2022-09-07T20:36:56.231Z,634
2022-09-07T20:42:14.869Z,674
2022-09-07T20:47:33.586Z,736
2022-09-07T20:52:52.405Z,775
2022-09-07T20:58:11.163Z,770
2022-09-07T21:03:29.478Z,771
2022-09-07T21:08:47.920Z,766
2022-09-07T21:14:06.399Z,767
2022-09-07T21:19:24.891Z,773
2022-09-07T21:24:43.288Z,791
2022-09-07T21:30:01.500Z,791
2022-09-07T21:35:20.300Z,788
2022-09-07T21:40:38.467Z,799
2022-09-07T21:45:56.698Z,787
2022-09-07T21:51:15.215Z,798
2022-09-07T21:56:33.932Z,813
2022-09-07T22:01:52.482Z,802
2022-09-07T22:07:10.886Z,831
2022-09-07T22:12:29.337Z,846
2022-09-07T22:17:47.822Z,853
2022-09-07T22:23:06.513Z,839
2022-09-07T22:28:25.256Z,855
2022-09-07T22:33:43.171Z,870
2022-09-07T22:39:01.376Z,873
2022-09-07T22:44:19.635Z,881
2022-09-07T22:49:38.078Z,883
2022-09-07T22:54:56.842Z,885
2022-09-07T23:00:15.051Z,899
2022-09-07T23:05:33.004Z,907
2022-09-07T23:10:51.749Z,914
2022-09-07T23:16:10.028Z,902
2022-09-07T23:21:28.092Z,910
2022-09-07T23:26:46.593Z,927
2022-09-07T23:32:05.089Z,932
2022-09-07T23:37:23.579Z,928
2022-09-07T23:42:41.809Z,941
2022-09-07T23:48:00.254Z,959
2022-09-07T23:53:19.020Z,970
2022-09-07T23:58:37.798Z,980
